sensor_id;sensor_type;location;lat;lon;timestamp;P1;durP1;ratioP1;P2;durP2;ratioP2
3491;SDS011;1760;52.480;13.422;2023-08-06T00:01:11;8.30;;;6.90;;
3491;SDS011;1760;52.480;13.422;2023-08-06T00:03:38;7.73;;;6.57;;
3491;SDS011;1760;52.480;13.422;2023-08-06T00:06:05;11.33;;;7.13;;
3491;SDS011;1760;52.480;13.422;2023-08-06T00:08:32;24.03;;;7.70;;
3491;SDS011;1760;52.480;13.422;2023-08-06T00:10:59;8.93;;;6.20;;
3491;SDS011;1760;52.480;13.422;2023-08-06T00:13:27;10.00;;;7.80;;
3491;SDS011;1760;52.480;13.422;2023-08-06T00:15:54;10.50;;;6.70;;
3491;SDS011;1760;52.480;13.422;2023-08-06T00:18:21;7.13;;;6.43;;
3491;SDS011;1760;52.480;13.422;2023-08-06T00:20:48;9.83;;;7.17;;
3491;SDS011;1760;52.480;13.422;2023-08-06T00:23:15;17.83;;;8.90;;
3491;SDS011;1760;52.480;13.422;2023-08-06T00:25:43;8.50;;;7.30;;
3491;SDS011;1760;52.480;13.422;2023-08-06T00:28:09;7.27;;;6.50;;
3491;SDS011;1760;52.480;13.422;2023-08-06T00:30:38;7.63;;;6.37;;
3491;SDS011;1760;52.480;13.422;2023-08-06T00:33:07;10.50;;;7.10;;
3491;SDS011;1760;52.480;13.422;2023-08-06T00:35:33;7.13;;;6.20;;
3491;SDS011;1760;52.480;13.422;2023-08-06T00:38:00;14.13;;;6.83;;
3491;SDS011;1760;52.480;13.422;2023-08-06T00:40:27;8.80;;;7.17;;
3491;SDS011;1760;52.480;13.422;2023-08-06T00:42:55;10.17;;;7.03;;
3491;SDS011;1760;52.480;13.422;2023-08-06T00:45:22;10.10;;;7.70;;
3491;SDS011;1760;52.480;13.422;2023-08-06T00:47:50;7.60;;;6.40;;
3491;SDS011;1760;52.480;13.422;2023-08-06T00:50:18;8.07;;;7.20;;
3491;SDS011;1760;52.480;13.422;2023-08-06T00:52:47;9.30;;;6.40;;
3491;SDS011;1760;52.480;13.422;2023-08-06T00:55:14;8.93;;;6.60;;
3491;SDS011;1760;52.480;13.422;2023-08-06T00:57:41;10.00;;;7.80;;
3491;SDS011;1760;52.480;13.422;2023-08-06T01:00:09;9.03;;;6.70;;
3491;SDS011;1760;52.480;13.422;2023-08-06T01:02:36;9.23;;;6.47;;
3491;SDS011;1760;52.480;13.422;2023-08-06T01:05:05;8.67;;;7.30;;
3491;SDS011;1760;52.480;13.422;2023-08-06T01:07:38;7.93;;;6.40;;
3491;SDS011;1760;52.480;13.422;2023-08-06T01:10:19;8.57;;;7.23;;
3491;SDS011;1760;52.480;13.422;2023-08-06T01:12:57;6.97;;;6.27;;
3491;SDS011;1760;52.480;13.422;2023-08-06T01:15:32;11.50;;;7.20;;
3491;SDS011;1760;52.480;13.422;2023-08-06T01:18:07;10.23;;;6.27;;
3491;SDS011;1760;52.480;13.422;2023-08-06T01:20:36;8.50;;;6.93;;
3491;SDS011;1760;52.480;13.422;2023-08-06T01:23:03;8.23;;;6.80;;
3491;SDS011;1760;52.480;13.422;2023-08-06T01:25:31;8.10;;;6.33;;
3491;SDS011;1760;52.480;13.422;2023-08-06T01:28:04;8.07;;;7.00;;
3491;SDS011;1760;52.480;13.422;2023-08-06T01:30:37;9.23;;;7.57;;
3491;SDS011;1760;52.480;13.422;2023-08-06T01:33:07;8.00;;;7.00;;
3491;SDS011;1760;52.480;13.422;2023-08-06T01:35:39;7.73;;;6.87;;
3491;SDS011;1760;52.480;13.422;2023-08-06T01:38:07;9.53;;;7.30;;
3491;SDS011;1760;52.480;13.422;2023-08-06T01:40:34;12.43;;;8.23;;
3491;SDS011;1760;52.480;13.422;2023-08-06T01:43:01;6.53;;;5.93;;
3491;SDS011;1760;52.480;13.422;2023-08-06T01:45:28;8.30;;;6.93;;
3491;SDS011;1760;52.480;13.422;2023-08-06T01:47:55;10.93;;;7.07;;
3491;SDS011;1760;52.480;13.422;2023-08-06T01:50:22;8.27;;;7.47;;
3491;SDS011;1760;52.480;13.422;2023-08-06T01:52:50;12.53;;;7.03;;
3491;SDS011;1760;52.480;13.422;2023-08-06T01:55:17;11.70;;;7.57;;
3491;SDS011;1760;52.480;13.422;2023-08-06T01:57:44;9.00;;;7.13;;
3491;SDS011;1760;52.480;13.422;2023-08-06T02:00:11;8.40;;;7.50;;
3491;SDS011;1760;52.480;13.422;2023-08-06T02:02:38;7.60;;;6.37;;
3491;SDS011;1760;52.480;13.422;2023-08-06T02:05:06;7.50;;;6.57;;
3491;SDS011;1760;52.480;13.422;2023-08-06T02:07:33;7.07;;;6.37;;
3491;SDS011;1760;52.480;13.422;2023-08-06T02:10:02;9.20;;;6.77;;
3491;SDS011;1760;52.480;13.422;2023-08-06T02:12:29;7.80;;;7.00;;
3491;SDS011;1760;52.480;13.422;2023-08-06T02:14:56;8.43;;;7.20;;
3491;SDS011;1760;52.480;13.422;2023-08-06T02:17:23;10.07;;;7.73;;
3491;SDS011;1760;52.480;13.422;2023-08-06T02:19:50;10.80;;;8.87;;
3491;SDS011;1760;52.480;13.422;2023-08-06T02:22:17;10.03;;;8.30;;
3491;SDS011;1760;52.480;13.422;2023-08-06T02:24:43;8.67;;;7.43;;
3491;SDS011;1760;52.480;13.422;2023-08-06T02:27:12;7.37;;;6.60;;
3491;SDS011;1760;52.480;13.422;2023-08-06T02:29:40;11.93;;;8.60;;
3491;SDS011;1760;52.480;13.422;2023-08-06T02:32:07;11.27;;;7.97;;
3491;SDS011;1760;52.480;13.422;2023-08-06T02:34:34;13.30;;;8.87;;
3491;SDS011;1760;52.480;13.422;2023-08-06T02:37:01;10.10;;;8.43;;
3491;SDS011;1760;52.480;13.422;2023-08-06T02:39:28;9.20;;;7.37;;
3491;SDS011;1760;52.480;13.422;2023-08-06T02:41:55;9.60;;;8.60;;
3491;SDS011;1760;52.480;13.422;2023-08-06T02:44:23;9.67;;;7.87;;
3491;SDS011;1760;52.480;13.422;2023-08-06T02:46:53;9.03;;;7.47;;
3491;SDS011;1760;52.480;13.422;2023-08-06T02:49:20;8.40;;;7.13;;
3491;SDS011;1760;52.480;13.422;2023-08-06T02:51:47;7.50;;;6.60;;
3491;SDS011;1760;52.480;13.422;2023-08-06T02:54:14;8.47;;;6.60;;
3491;SDS011;1760;52.480;13.422;2023-08-06T02:56:42;8.87;;;7.20;;
3491;SDS011;1760;52.480;13.422;2023-08-06T02:59:10;8.37;;;6.83;;
3491;SDS011;1760;52.480;13.422;2023-08-06T03:01:38;12.27;;;7.30;;
3491;SDS011;1760;52.480;13.422;2023-08-06T03:04:05;7.90;;;6.60;;
3491;SDS011;1760;52.480;13.422;2023-08-06T03:06:32;6.53;;;5.87;;
3491;SDS011;1760;52.480;13.422;2023-08-06T03:08:58;6.77;;;5.43;;
3491;SDS011;1760;52.480;13.422;2023-08-06T03:11:27;7.20;;;5.30;;
3491;SDS011;1760;52.480;13.422;2023-08-06T03:13:54;6.90;;;6.10;;
3491;SDS011;1760;52.480;13.422;2023-08-06T03:16:21;8.97;;;6.50;;
3491;SDS011;1760;52.480;13.422;2023-08-06T03:18:50;13.37;;;9.70;;
3491;SDS011;1760;52.480;13.422;2023-08-06T03:21:17;7.80;;;5.60;;
3491;SDS011;1760;52.480;13.422;2023-08-06T03:23:46;7.97;;;6.13;;
3491;SDS011;1760;52.480;13.422;2023-08-06T03:26:13;8.33;;;6.10;;
3491;SDS011;1760;52.480;13.422;2023-08-06T03:28:40;5.90;;;5.13;;
3491;SDS011;1760;52.480;13.422;2023-08-06T03:31:07;9.03;;;6.67;;
3491;SDS011;1760;52.480;13.422;2023-08-06T03:33:34;6.73;;;5.47;;
3491;SDS011;1760;52.480;13.422;2023-08-06T03:36:03;6.83;;;5.77;;
3491;SDS011;1760;52.480;13.422;2023-08-06T03:38:30;6.13;;;5.53;;
3491;SDS011;1760;52.480;13.422;2023-08-06T03:40:57;5.43;;;4.93;;
3491;SDS011;1760;52.480;13.422;2023-08-06T03:43:24;6.00;;;5.07;;
3491;SDS011;1760;52.480;13.422;2023-08-06T03:45:51;6.90;;;5.70;;
3491;SDS011;1760;52.480;13.422;2023-08-06T03:48:17;6.87;;;6.00;;
3491;SDS011;1760;52.480;13.422;2023-08-06T03:50:44;7.23;;;5.43;;
3491;SDS011;1760;52.480;13.422;2023-08-06T03:53:13;7.50;;;6.70;;
3491;SDS011;1760;52.480;13.422;2023-08-06T03:55:40;7.40;;;5.40;;
3491;SDS011;1760;52.480;13.422;2023-08-06T03:58:07;5.07;;;4.57;;
3491;SDS011;1760;52.480;13.422;2023-08-06T04:00:33;9.70;;;5.97;;
3491;SDS011;1760;52.480;13.422;2023-08-06T04:03:00;6.00;;;5.43;;
3491;SDS011;1760;52.480;13.422;2023-08-06T04:05:27;6.57;;;5.87;;
3491;SDS011;1760;52.480;13.422;2023-08-06T04:07:57;7.23;;;5.57;;
3491;SDS011;1760;52.480;13.422;2023-08-06T04:10:26;6.80;;;5.60;;
3491;SDS011;1760;52.480;13.422;2023-08-06T04:12:53;6.93;;;6.03;;
3491;SDS011;1760;52.480;13.422;2023-08-06T04:15:20;7.37;;;6.20;;
3491;SDS011;1760;52.480;13.422;2023-08-06T04:17:47;5.63;;;5.10;;
3491;SDS011;1760;52.480;13.422;2023-08-06T04:20:14;6.50;;;5.70;;
3491;SDS011;1760;52.480;13.422;2023-08-06T04:22:40;6.50;;;5.40;;
3491;SDS011;1760;52.480;13.422;2023-08-06T04:25:08;7.10;;;6.10;;
3491;SDS011;1760;52.480;13.422;2023-08-06T04:27:36;7.20;;;6.50;;
3491;SDS011;1760;52.480;13.422;2023-08-06T04:30:06;8.77;;;6.90;;
3491;SDS011;1760;52.480;13.422;2023-08-06T04:32:34;9.50;;;5.90;;
3491;SDS011;1760;52.480;13.422;2023-08-06T04:35:01;6.67;;;5.53;;
3491;SDS011;1760;52.480;13.422;2023-08-06T04:37:28;8.83;;;6.17;;
3491;SDS011;1760;52.480;13.422;2023-08-06T04:39:55;8.03;;;6.17;;
3491;SDS011;1760;52.480;13.422;2023-08-06T04:42:22;6.23;;;5.30;;
3491;SDS011;1760;52.480;13.422;2023-08-06T04:44:50;9.63;;;6.00;;
3491;SDS011;1760;52.480;13.422;2023-08-06T04:47:17;10.47;;;5.70;;
3491;SDS011;1760;52.480;13.422;2023-08-06T04:49:44;9.20;;;6.03;;
3491;SDS011;1760;52.480;13.422;2023-08-06T04:52:11;7.20;;;6.07;;
3491;SDS011;1760;52.480;13.422;2023-08-06T04:54:38;6.67;;;6.03;;
3491;SDS011;1760;52.480;13.422;2023-08-06T04:57:05;6.47;;;5.37;;
3491;SDS011;1760;52.480;13.422;2023-08-06T04:59:32;7.80;;;5.97;;
3491;SDS011;1760;52.480;13.422;2023-08-06T05:02:00;8.90;;;7.13;;
3491;SDS011;1760;52.480;13.422;2023-08-06T05:04:27;7.33;;;6.23;;
3491;SDS011;1760;52.480;13.422;2023-08-06T05:06:54;5.57;;;5.07;;
3491;SDS011;1760;52.480;13.422;2023-08-06T05:09:21;6.90;;;6.17;;
3491;SDS011;1760;52.480;13.422;2023-08-06T05:11:49;7.40;;;5.50;;
3491;SDS011;1760;52.480;13.422;2023-08-06T05:14:16;6.93;;;5.67;;
3491;SDS011;1760;52.480;13.422;2023-08-06T05:16:46;11.23;;;6.50;;
3491;SDS011;1760;52.480;13.422;2023-08-06T05:19:14;7.10;;;6.30;;
3491;SDS011;1760;52.480;13.422;2023-08-06T05:21:41;9.50;;;6.60;;
3491;SDS011;1760;52.480;13.422;2023-08-06T05:24:08;6.67;;;6.00;;
3491;SDS011;1760;52.480;13.422;2023-08-06T05:26:35;6.23;;;4.70;;
3491;SDS011;1760;52.480;13.422;2023-08-06T05:29:02;7.17;;;5.30;;
3491;SDS011;1760;52.480;13.422;2023-08-06T05:31:29;7.27;;;6.30;;
3491;SDS011;1760;52.480;13.422;2023-08-06T05:33:56;6.40;;;5.73;;
3491;SDS011;1760;52.480;13.422;2023-08-06T05:36:25;6.83;;;5.60;;
3491;SDS011;1760;52.480;13.422;2023-08-06T05:38:52;6.10;;;5.07;;
3491;SDS011;1760;52.480;13.422;2023-08-06T05:41:18;8.50;;;6.07;;
3491;SDS011;1760;52.480;13.422;2023-08-06T05:43:45;8.67;;;5.97;;
3491;SDS011;1760;52.480;13.422;2023-08-06T05:46:12;8.07;;;7.00;;
3491;SDS011;1760;52.480;13.422;2023-08-06T05:48:39;7.77;;;6.50;;
3491;SDS011;1760;52.480;13.422;2023-08-06T05:51:05;6.33;;;5.73;;
3491;SDS011;1760;52.480;13.422;2023-08-06T05:53:34;7.27;;;5.73;;
3491;SDS011;1760;52.480;13.422;2023-08-06T05:56:01;6.60;;;5.97;;
3491;SDS011;1760;52.480;13.422;2023-08-06T05:58:28;8.20;;;6.73;;
3491;SDS011;1760;52.480;13.422;2023-08-06T06:00:55;6.63;;;5.50;;
3491;SDS011;1760;52.480;13.422;2023-08-06T06:03:22;6.80;;;5.97;;
3491;SDS011;1760;52.480;13.422;2023-08-06T06:05:49;8.40;;;5.90;;
3491;SDS011;1760;52.480;13.422;2023-08-06T06:08:16;8.53;;;7.07;;
3491;SDS011;1760;52.480;13.422;2023-08-06T06:10:44;21.57;;;10.90;;
3491;SDS011;1760;52.480;13.422;2023-08-06T06:13:11;8.10;;;6.60;;
3491;SDS011;1760;52.480;13.422;2023-08-06T06:15:38;7.57;;;5.93;;
3491;SDS011;1760;52.480;13.422;2023-08-06T06:18:04;7.53;;;5.50;;
3491;SDS011;1760;52.480;13.422;2023-08-06T06:20:31;6.90;;;5.33;;
3491;SDS011;1760;52.480;13.422;2023-08-06T06:22:58;8.10;;;5.87;;
3491;SDS011;1760;52.480;13.422;2023-08-06T06:25:25;8.60;;;6.03;;
3491;SDS011;1760;52.480;13.422;2023-08-06T06:27:54;6.93;;;5.83;;
3491;SDS011;1760;52.480;13.422;2023-08-06T06:30:20;9.40;;;7.23;;
3491;SDS011;1760;52.480;13.422;2023-08-06T06:32:47;6.97;;;5.87;;
3491;SDS011;1760;52.480;13.422;2023-08-06T06:35:14;6.20;;;5.67;;
3491;SDS011;1760;52.480;13.422;2023-08-06T06:37:41;7.33;;;6.47;;
3491;SDS011;1760;52.480;13.422;2023-08-06T06:40:08;7.17;;;6.47;;
3491;SDS011;1760;52.480;13.422;2023-08-06T06:42:36;7.03;;;5.87;;
3491;SDS011;1760;52.480;13.422;2023-08-06T06:45:04;6.90;;;4.90;;
3491;SDS011;1760;52.480;13.422;2023-08-06T06:47:32;7.07;;;6.33;;
3491;SDS011;1760;52.480;13.422;2023-08-06T06:49:59;10.07;;;7.17;;
3491;SDS011;1760;52.480;13.422;2023-08-06T06:52:26;7.70;;;6.93;;
3491;SDS011;1760;52.480;13.422;2023-08-06T06:54:52;8.07;;;6.70;;
3491;SDS011;1760;52.480;13.422;2023-08-06T06:57:19;8.73;;;7.10;;
3491;SDS011;1760;52.480;13.422;2023-08-06T06:59:50;7.60;;;6.50;;
3491;SDS011;1760;52.480;13.422;2023-08-06T07:02:18;7.20;;;6.50;;
3491;SDS011;1760;52.480;13.422;2023-08-06T07:04:45;7.53;;;6.77;;
3491;SDS011;1760;52.480;13.422;2023-08-06T07:07:12;7.53;;;6.40;;
3491;SDS011;1760;52.480;13.422;2023-08-06T07:09:39;7.17;;;6.20;;
3491;SDS011;1760;52.480;13.422;2023-08-06T07:12:06;8.27;;;7.13;;
3491;SDS011;1760;52.480;13.422;2023-08-06T07:14:33;7.70;;;6.90;;
3491;SDS011;1760;52.480;13.422;2023-08-06T07:17:00;8.93;;;6.50;;
3491;SDS011;1760;52.480;13.422;2023-08-06T07:19:28;9.57;;;7.43;;
3491;SDS011;1760;52.480;13.422;2023-08-06T07:21:55;9.27;;;7.03;;
3491;SDS011;1760;52.480;13.422;2023-08-06T07:24:22;13.40;;;7.97;;
3491;SDS011;1760;52.480;13.422;2023-08-06T07:26:49;9.93;;;8.23;;
3491;SDS011;1760;52.480;13.422;2023-08-06T07:29:17;8.03;;;6.93;;
3491;SDS011;1760;52.480;13.422;2023-08-06T07:31:46;10.30;;;7.20;;
3491;SDS011;1760;52.480;13.422;2023-08-06T07:34:14;11.87;;;6.73;;
3491;SDS011;1760;52.480;13.422;2023-08-06T07:36:44;9.03;;;7.00;;
3491;SDS011;1760;52.480;13.422;2023-08-06T07:39:12;10.33;;;7.27;;
3491;SDS011;1760;52.480;13.422;2023-08-06T07:41:43;7.73;;;6.93;;
3491;SDS011;1760;52.480;13.422;2023-08-06T07:44:13;11.90;;;7.40;;
3491;SDS011;1760;52.480;13.422;2023-08-06T07:46:41;8.93;;;6.70;;
3491;SDS011;1760;52.480;13.422;2023-08-06T07:49:08;8.10;;;7.00;;
3491;SDS011;1760;52.480;13.422;2023-08-06T07:51:36;8.40;;;7.30;;
3491;SDS011;1760;52.480;13.422;2023-08-06T07:54:05;8.97;;;6.93;;
3491;SDS011;1760;52.480;13.422;2023-08-06T07:56:32;8.47;;;5.33;;
3491;SDS011;1760;52.480;13.422;2023-08-06T07:58:59;7.87;;;6.50;;
3491;SDS011;1760;52.480;13.422;2023-08-06T08:01:25;6.30;;;4.93;;
3491;SDS011;1760;52.480;13.422;2023-08-06T08:03:52;9.03;;;5.60;;
3491;SDS011;1760;52.480;13.422;2023-08-06T08:06:19;7.47;;;5.03;;
3491;SDS011;1760;52.480;13.422;2023-08-06T08:08:46;6.67;;;5.80;;
3491;SDS011;1760;52.480;13.422;2023-08-06T08:11:14;16.20;;;6.70;;
3491;SDS011;1760;52.480;13.422;2023-08-06T08:13:42;5.80;;;4.63;;
3491;SDS011;1760;52.480;13.422;2023-08-06T08:16:09;7.17;;;6.20;;
3491;SDS011;1760;52.480;13.422;2023-08-06T08:18:35;6.90;;;6.20;;
3491;SDS011;1760;52.480;13.422;2023-08-06T08:21:02;8.73;;;5.40;;
3491;SDS011;1760;52.480;13.422;2023-08-06T08:23:29;7.80;;;5.43;;
3491;SDS011;1760;52.480;13.422;2023-08-06T08:25:57;6.20;;;5.63;;
3491;SDS011;1760;52.480;13.422;2023-08-06T08:28:26;8.27;;;6.70;;
3491;SDS011;1760;52.480;13.422;2023-08-06T08:30:52;6.97;;;5.77;;
3491;SDS011;1760;52.480;13.422;2023-08-06T08:33:22;8.43;;;6.40;;
3491;SDS011;1760;52.480;13.422;2023-08-06T08:35:49;7.50;;;6.17;;
3491;SDS011;1760;52.480;13.422;2023-08-06T08:38:16;9.40;;;6.60;;
3491;SDS011;1760;52.480;13.422;2023-08-06T08:40:44;8.97;;;6.70;;
3491;SDS011;1760;52.480;13.422;2023-08-06T08:43:12;7.37;;;6.50;;
3491;SDS011;1760;52.480;13.422;2023-08-06T08:45:42;9.47;;;7.40;;
3491;SDS011;1760;52.480;13.422;2023-08-06T08:48:10;7.23;;;6.53;;
3491;SDS011;1760;52.480;13.422;2023-08-06T08:50:39;7.93;;;6.90;;
3491;SDS011;1760;52.480;13.422;2023-08-06T08:53:06;8.93;;;7.27;;
3491;SDS011;1760;52.480;13.422;2023-08-06T08:55:34;8.33;;;7.43;;
3491;SDS011;1760;52.480;13.422;2023-08-06T08:58:01;8.80;;;7.90;;
3491;SDS011;1760;52.480;13.422;2023-08-06T09:00:28;11.23;;;7.60;;
3491;SDS011;1760;52.480;13.422;2023-08-06T09:02:57;8.80;;;7.87;;
3491;SDS011;1760;52.480;13.422;2023-08-06T09:05:26;9.40;;;8.23;;
3491;SDS011;1760;52.480;13.422;2023-08-06T09:07:56;9.90;;;7.40;;
3491;SDS011;1760;52.480;13.422;2023-08-06T09:10:28;7.90;;;6.20;;
3491;SDS011;1760;52.480;13.422;2023-08-06T09:12:58;13.10;;;8.37;;
3491;SDS011;1760;52.480;13.422;2023-08-06T09:15:26;9.10;;;7.93;;
3491;SDS011;1760;52.480;13.422;2023-08-06T09:17:53;10.03;;;7.93;;
3491;SDS011;1760;52.480;13.422;2023-08-06T09:20:22;11.10;;;8.70;;
3491;SDS011;1760;52.480;13.422;2023-08-06T09:22:49;9.77;;;8.20;;
3491;SDS011;1760;52.480;13.422;2023-08-06T09:25:20;8.83;;;7.93;;
3491;SDS011;1760;52.480;13.422;2023-08-06T09:27:49;8.17;;;7.40;;
3491;SDS011;1760;52.480;13.422;2023-08-06T09:30:28;9.27;;;8.37;;
3491;SDS011;1760;52.480;13.422;2023-08-06T09:32:56;10.00;;;8.87;;
3491;SDS011;1760;52.480;13.422;2023-08-06T09:35:27;11.03;;;8.60;;
3491;SDS011;1760;52.480;13.422;2023-08-06T09:37:55;9.40;;;8.33;;
3491;SDS011;1760;52.480;13.422;2023-08-06T09:40:25;16.00;;;8.37;;
3491;SDS011;1760;52.480;13.422;2023-08-06T09:42:53;10.67;;;9.60;;
3491;SDS011;1760;52.480;13.422;2023-08-06T09:45:20;11.70;;;9.07;;
3491;SDS011;1760;52.480;13.422;2023-08-06T09:47:48;11.27;;;8.30;;
3491;SDS011;1760;52.480;13.422;2023-08-06T09:50:16;9.60;;;8.47;;
3491;SDS011;1760;52.480;13.422;2023-08-06T09:52:45;10.67;;;9.03;;
3491;SDS011;1760;52.480;13.422;2023-08-06T09:55:13;9.10;;;8.20;;
3491;SDS011;1760;52.480;13.422;2023-08-06T09:57:41;9.83;;;8.73;;
3491;SDS011;1760;52.480;13.422;2023-08-06T10:00:08;14.03;;;9.00;;
3491;SDS011;1760;52.480;13.422;2023-08-06T10:02:38;9.83;;;8.60;;
3491;SDS011;1760;52.480;13.422;2023-08-06T10:05:06;10.03;;;9.00;;
3491;SDS011;1760;52.480;13.422;2023-08-06T10:07:34;9.30;;;7.80;;
3491;SDS011;1760;52.480;13.422;2023-08-06T10:10:06;11.43;;;9.00;;
3491;SDS011;1760;52.480;13.422;2023-08-06T10:12:34;13.83;;;9.73;;
3491;SDS011;1760;52.480;13.422;2023-08-06T10:15:06;12.57;;;9.87;;
3491;SDS011;1760;52.480;13.422;2023-08-06T10:17:37;11.67;;;9.10;;
3491;SDS011;1760;52.480;13.422;2023-08-06T10:20:05;11.70;;;9.53;;
3491;SDS011;1760;52.480;13.422;2023-08-06T10:22:34;12.50;;;9.80;;
3491;SDS011;1760;52.480;13.422;2023-08-06T10:25:03;14.90;;;9.60;;
3491;SDS011;1760;52.480;13.422;2023-08-06T10:27:32;10.90;;;9.30;;
3491;SDS011;1760;52.480;13.422;2023-08-06T10:32:52;14.00;;;10.20;;
3491;SDS011;1760;52.480;13.422;2023-08-06T10:35:30;18.27;;;12.03;;
3491;SDS011;1760;52.480;13.422;2023-08-06T10:38:04;14.17;;;9.70;;
3491;SDS011;1760;52.480;13.422;2023-08-06T10:40:32;14.00;;;8.87;;
3491;SDS011;1760;52.480;13.422;2023-08-06T10:43:01;14.73;;;9.57;;
3491;SDS011;1760;52.480;13.422;2023-08-06T10:45:28;12.00;;;9.07;;
3491;SDS011;1760;52.480;13.422;2023-08-06T10:47:56;11.23;;;9.73;;
3491;SDS011;1760;52.480;13.422;2023-08-06T10:50:23;10.63;;;9.03;;
3491;SDS011;1760;52.480;13.422;2023-08-06T10:52:51;11.70;;;9.77;;
3491;SDS011;1760;52.480;13.422;2023-08-06T10:55:25;11.70;;;9.13;;
3491;SDS011;1760;52.480;13.422;2023-08-06T10:57:54;13.80;;;9.53;;
3491;SDS011;1760;52.480;13.422;2023-08-06T11:00:23;9.90;;;8.80;;
3491;SDS011;1760;52.480;13.422;2023-08-06T11:02:51;10.20;;;8.80;;
3491;SDS011;1760;52.480;13.422;2023-08-06T11:05:19;12.23;;;9.10;;
3491;SDS011;1760;52.480;13.422;2023-08-06T11:07:45;38.47;;;10.63;;
3491;SDS011;1760;52.480;13.422;2023-08-06T11:10:14;11.30;;;9.43;;
3491;SDS011;1760;52.480;13.422;2023-08-06T11:12:42;10.50;;;9.03;;
3491;SDS011;1760;52.480;13.422;2023-08-06T11:15:10;13.07;;;8.47;;
3491;SDS011;1760;52.480;13.422;2023-08-06T11:17:39;11.00;;;9.17;;
3491;SDS011;1760;52.480;13.422;2023-08-06T11:20:07;10.03;;;8.47;;
3491;SDS011;1760;52.480;13.422;2023-08-06T11:22:37;12.17;;;10.10;;
3491;SDS011;1760;52.480;13.422;2023-08-06T11:25:05;12.30;;;8.80;;
3491;SDS011;1760;52.480;13.422;2023-08-06T11:27:32;11.63;;;8.40;;
3491;SDS011;1760;52.480;13.422;2023-08-06T11:29:59;12.13;;;9.03;;
3491;SDS011;1760;52.480;13.422;2023-08-06T11:32:26;11.60;;;9.43;;
3491;SDS011;1760;52.480;13.422;2023-08-06T11:34:55;9.63;;;8.00;;
3491;SDS011;1760;52.480;13.422;2023-08-06T11:37:22;9.10;;;7.63;;
3491;SDS011;1760;52.480;13.422;2023-08-06T11:39:52;10.30;;;8.13;;
3491;SDS011;1760;52.480;13.422;2023-08-06T11:42:19;9.00;;;7.50;;
3491;SDS011;1760;52.480;13.422;2023-08-06T11:44:46;8.50;;;7.40;;
3491;SDS011;1760;52.480;13.422;2023-08-06T11:47:14;9.30;;;7.27;;
3491;SDS011;1760;52.480;13.422;2023-08-06T11:49:46;7.57;;;6.77;;
3491;SDS011;1760;52.480;13.422;2023-08-06T11:52:16;9.93;;;8.93;;
3491;SDS011;1760;52.480;13.422;2023-08-06T11:54:59;8.63;;;7.73;;
3491;SDS011;1760;52.480;13.422;2023-08-06T11:57:31;11.63;;;8.87;;
3491;SDS011;1760;52.480;13.422;2023-08-06T12:00:01;10.63;;;7.40;;
3491;SDS011;1760;52.480;13.422;2023-08-06T12:02:31;10.17;;;7.97;;
3491;SDS011;1760;52.480;13.422;2023-08-06T12:05:02;9.57;;;7.73;;
3491;SDS011;1760;52.480;13.422;2023-08-06T12:07:38;8.57;;;7.70;;
3491;SDS011;1760;52.480;13.422;2023-08-06T12:10:07;9.40;;;8.40;;
3491;SDS011;1760;52.480;13.422;2023-08-06T12:12:36;9.00;;;7.70;;
3491;SDS011;1760;52.480;13.422;2023-08-06T12:15:04;10.20;;;7.90;;
3491;SDS011;1760;52.480;13.422;2023-08-06T12:17:32;8.60;;;6.87;;
3491;SDS011;1760;52.480;13.422;2023-08-06T12:19:59;12.40;;;9.53;;
3491;SDS011;1760;52.480;13.422;2023-08-06T12:22:26;17.23;;;9.43;;
3491;SDS011;1760;52.480;13.422;2023-08-06T12:24:54;11.43;;;7.37;;
3491;SDS011;1760;52.480;13.422;2023-08-06T12:27:21;12.10;;;8.37;;
3491;SDS011;1760;52.480;13.422;2023-08-06T12:29:48;10.73;;;9.13;;
3491;SDS011;1760;52.480;13.422;2023-08-06T12:32:15;10.53;;;8.80;;
3491;SDS011;1760;52.480;13.422;2023-08-06T12:34:42;10.07;;;8.17;;
3491;SDS011;1760;52.480;13.422;2023-08-06T12:37:09;11.00;;;9.73;;
3491;SDS011;1760;52.480;13.422;2023-08-06T12:39:36;12.20;;;8.57;;
3491;SDS011;1760;52.480;13.422;2023-08-06T12:42:05;11.33;;;8.70;;
3491;SDS011;1760;52.480;13.422;2023-08-06T12:44:32;11.50;;;8.07;;
3491;SDS011;1760;52.480;13.422;2023-08-06T12:46:59;11.00;;;8.77;;
3491;SDS011;1760;52.480;13.422;2023-08-06T12:49:26;9.57;;;8.20;;
3491;SDS011;1760;52.480;13.422;2023-08-06T12:51:53;9.80;;;7.93;;
3491;SDS011;1760;52.480;13.422;2023-08-06T12:54:21;9.70;;;7.83;;
3491;SDS011;1760;52.480;13.422;2023-08-06T12:56:49;12.60;;;7.50;;
3491;SDS011;1760;52.480;13.422;2023-08-06T12:59:19;9.10;;;7.20;;
3491;SDS011;1760;52.480;13.422;2023-08-06T13:01:46;9.60;;;7.90;;
3491;SDS011;1760;52.480;13.422;2023-08-06T13:04:13;7.97;;;6.77;;
3491;SDS011;1760;52.480;13.422;2023-08-06T13:06:40;11.10;;;8.03;;
3491;SDS011;1760;52.480;13.422;2023-08-06T13:09:07;8.67;;;7.37;;
3491;SDS011;1760;52.480;13.422;2023-08-06T13:11:34;9.63;;;7.13;;
3491;SDS011;1760;52.480;13.422;2023-08-06T13:14:04;8.00;;;7.10;;
3491;SDS011;1760;52.480;13.422;2023-08-06T13:16:33;7.87;;;6.67;;
3491;SDS011;1760;52.480;13.422;2023-08-06T13:19:00;11.00;;;9.30;;
3491;SDS011;1760;52.480;13.422;2023-08-06T13:21:35;8.50;;;7.67;;
3491;SDS011;1760;52.480;13.422;2023-08-06T13:24:28;9.50;;;7.17;;
3491;SDS011;1760;52.480;13.422;2023-08-06T13:26:55;9.23;;;8.23;;
3491;SDS011;1760;52.480;13.422;2023-08-06T13:29:22;9.90;;;7.10;;
3491;SDS011;1760;52.480;13.422;2023-08-06T13:31:51;13.93;;;9.10;;
3491;SDS011;1760;52.480;13.422;2023-08-06T13:34:17;10.83;;;8.20;;
3491;SDS011;1760;52.480;13.422;2023-08-06T13:36:44;8.93;;;7.10;;
3491;SDS011;1760;52.480;13.422;2023-08-06T13:39:11;10.30;;;7.00;;
3491;SDS011;1760;52.480;13.422;2023-08-06T13:41:41;8.10;;;5.83;;
3491;SDS011;1760;52.480;13.422;2023-08-06T13:44:08;8.00;;;5.97;;
3491;SDS011;1760;52.480;13.422;2023-08-06T13:46:38;7.63;;;6.13;;
3491;SDS011;1760;52.480;13.422;2023-08-06T13:49:06;8.20;;;6.53;;
3491;SDS011;1760;52.480;13.422;2023-08-06T13:51:33;9.13;;;6.80;;
3491;SDS011;1760;52.480;13.422;2023-08-06T13:54:01;10.83;;;7.20;;
3491;SDS011;1760;52.480;13.422;2023-08-06T13:56:37;8.30;;;7.40;;
3491;SDS011;1760;52.480;13.422;2023-08-06T13:59:04;9.37;;;7.53;;
3491;SDS011;1760;52.480;13.422;2023-08-06T14:01:31;12.37;;;7.87;;
3491;SDS011;1760;52.480;13.422;2023-08-06T14:03:58;13.73;;;8.47;;
3491;SDS011;1760;52.480;13.422;2023-08-06T14:06:26;8.40;;;7.23;;
3491;SDS011;1760;52.480;13.422;2023-08-06T14:08:53;12.13;;;8.70;;
3491;SDS011;1760;52.480;13.422;2023-08-06T14:11:20;10.93;;;7.97;;
3491;SDS011;1760;52.480;13.422;2023-08-06T14:13:47;8.50;;;7.60;;
3491;SDS011;1760;52.480;13.422;2023-08-06T14:16:14;20.10;;;10.10;;
3491;SDS011;1760;52.480;13.422;2023-08-06T14:18:41;11.53;;;8.43;;
3491;SDS011;1760;52.480;13.422;2023-08-06T14:21:08;11.83;;;8.43;;
3491;SDS011;1760;52.480;13.422;2023-08-06T14:23:36;12.13;;;8.50;;
3491;SDS011;1760;52.480;13.422;2023-08-06T14:26:03;13.80;;;8.50;;
3491;SDS011;1760;52.480;13.422;2023-08-06T14:28:30;9.70;;;7.97;;
3491;SDS011;1760;52.480;13.422;2023-08-06T14:30:56;11.40;;;8.57;;
3491;SDS011;1760;52.480;13.422;2023-08-06T14:33:23;9.90;;;7.00;;
3491;SDS011;1760;52.480;13.422;2023-08-06T14:35:50;10.03;;;8.57;;
3491;SDS011;1760;52.480;13.422;2023-08-06T14:38:17;12.93;;;6.97;;
3491;SDS011;1760;52.480;13.422;2023-08-06T14:40:45;19.13;;;9.43;;
3491;SDS011;1760;52.480;13.422;2023-08-06T14:43:12;9.60;;;7.80;;
3491;SDS011;1760;52.480;13.422;2023-08-06T14:45:39;8.30;;;6.73;;
3491;SDS011;1760;52.480;13.422;2023-08-06T14:48:06;17.70;;;9.47;;
3491;SDS011;1760;52.480;13.422;2023-08-06T14:50:33;12.27;;;6.93;;
3491;SDS011;1760;52.480;13.422;2023-08-06T14:53:00;10.33;;;6.57;;
3491;SDS011;1760;52.480;13.422;2023-08-06T14:55:28;7.13;;;5.87;;
3491;SDS011;1760;52.480;13.422;2023-08-06T14:57:56;7.70;;;5.60;;
3491;SDS011;1760;52.480;13.422;2023-08-06T15:00:23;5.80;;;5.20;;
3491;SDS011;1760;52.480;13.422;2023-08-06T15:02:50;6.93;;;6.23;;
3491;SDS011;1760;52.480;13.422;2023-08-06T15:05:17;9.70;;;5.60;;